Time;durP1;ratioP1;P1;durP2;ratioP2;P2;SDS_P1;SDS_P2;PMS_P1;PMS_P2;Temp;Humidity;BMP_temperature;BMP_pressure;BME280_temperature;BME280_humidity;BME280_pressure;Samples;Min_cycle;Max_cycle;Signal;HPM_P1;HPM_P2
2022/05/06 00:00:20;;;;;;;8.20;7.13;;;;;;;15.74;71.38;101681.41;4953917;28;20043;-60
2022/05/06 00:02:47;;;;;;;11.00;6.47;;;;;;;15.71;71.25;101686.91;4954059;28;20051;-60
2022/05/06 00:05:14;;;;;;;7.80;6.90;;;;;;;15.71;71.43;101682.44;4953694;28;20133;-63
2022/05/06 00:07:40;;;;;;;8.35;6.50;;;;;;;15.70;71.65;101678.09;4953853;28;20051;-62
2022/05/06 00:10:09;;;;;;;7.57;5.93;;;;;;;15.67;71.68;101679.13;4954011;28;20082;-60
2022/05/06 00:12:36;;;;;;;7.03;6.20;;;;;;;15.68;71.72;101680.84;4952847;28;20109;-60
2022/05/06 00:15:06;;;;;;;6.35;5.75;;;;;;;15.67;71.54;101683.59;4953928;28;20051;-60
2022/05/06 00:17:33;;;;;;;6.95;5.85;;;;;;;15.67;71.58;101678.31;4953859;28;20047;-60
2022/05/06 00:20:00;;;;;;;6.10;5.50;;;;;;;15.68;71.40;101680.00;4953710;28;20055;-60
2022/05/06 00:22:27;;;;;;;6.97;5.40;;;;;;;15.67;71.41;101681.78;4957655;28;20059;-60
2022/05/06 00:24:53;;;;;;;6.97;5.63;;;;;;;15.66;71.30;101680.06;4957921;28;20043;-61
2022/05/06 00:27:21;;;;;;;6.18;5.55;;;;;;;15.65;71.33;101680.19;4965262;28;20448;-60
2022/05/06 00:29:47;;;;;;;5.63;5.10;;;;;;;15.65;71.50;101680.19;4956624;28;20102;-60
2022/05/06 00:32:14;;;;;;;5.97;4.97;;;;;;;15.63;71.42;101672.34;4957792;28;20048;-60
2022/05/06 00:34:41;;;;;;;5.90;5.10;;;;;;;15.64;71.49;101670.53;4957440;28;20122;-61
2022/05/06 00:37:08;;;;;;;6.22;5.05;;;;;;;15.64;71.56;101665.25;4957700;28;20047;-60
2022/05/06 00:39:34;;;;;;;6.40;5.35;;;;;;;15.64;71.44;101671.41;4957326;28;20047;-61
2022/05/06 00:42:01;;;;;;;5.57;4.95;;;;;;;15.62;71.48;101668.00;4957462;28;20054;-61
2022/05/06 00:44:29;;;;;;;6.07;4.93;;;;;;;15.62;71.49;101664.50;4957415;28;20058;-67
2022/05/06 00:46:58;;;;;;;7.18;4.55;;;;;;;15.62;71.48;101664.50;4956422;28;20496;-60
2022/05/06 00:49:25;;;;;;;5.57;4.90;;;;;;;15.61;71.51;101654.88;4957370;28;20050;-60
2022/05/06 00:51:52;;;;;;;4.85;4.35;;;;;;;15.61;71.46;101660.16;4957332;28;20131;-61
2022/05/06 00:54:21;;;;;;;6.07;5.03;;;;;;;15.61;71.28;101662.81;4957082;28;20051;-69
2022/05/06 00:56:49;;;;;;;6.70;4.63;;;;;;;15.60;71.51;101664.59;4957357;28;20070;-60
2022/05/06 00:59:16;;;;;;;5.55;4.60;;;;;;;15.59;71.64;101654.97;4957149;28;20051;-64
2022/05/06 01:01:43;;;;;;;5.00;4.35;;;;;;;15.59;71.65;101659.41;4956234;28;20439;-60
2022/05/06 01:04:10;;;;;;;4.60;4.20;;;;;;;15.57;71.39;101662.16;4957171;28;20078;-66
2022/05/06 01:06:38;;;;;;;5.75;4.45;;;;;;;15.57;71.61;101656.84;4956680;28;20043;-68
2022/05/06 01:09:06;;;;;;;4.72;3.92;;;;;;;15.59;71.76;101654.09;4957012;28;20043;-69
2022/05/06 01:11:33;;;;;;;5.18;4.63;;;;;;;15.56;72.07;101659.59;4957034;28;20051;-63
2022/05/06 01:14:00;;;;;;;5.10;4.60;;;;;;;15.57;71.77;101653.38;4956831;28;20054;-67
2022/05/06 01:16:35;;;;;;;5.28;4.78;;;;;;;15.58;72.05;101650.63;4956830;28;20134;-62
2022/05/06 01:19:03;;;;;;;4.45;4.05;;;;;;;15.58;71.80;101653.28;4955455;28;20047;-69
2022/05/06 01:21:35;;;;;;;4.75;4.35;;;;;;;15.58;71.89;101647.13;4956245;28;20059;-60
2022/05/06 01:24:02;;;;;;;4.47;4.07;;;;;;;15.58;72.07;101644.47;4956751;29;20047;-61
2022/05/06 01:27:05;;;;;;;5.18;3.83;;;;;;;15.57;72.11;101645.44;4956720;28;20404;-63
2022/05/06 01:29:32;;;;;;;3.75;3.35;;;;;;;15.55;71.95;101648.16;4956585;28;20055;-66
2022/05/06 01:32:01;;;;;;;4.20;3.80;;;;;;;15.56;72.11;101646.38;4956567;28;20444;-61
2022/05/06 01:34:32;;;;;;;3.78;3.40;;;;;;;15.55;72.25;101642.88;4956447;28;20055;-66
2022/05/06 01:37:02;;;;;;;5.43;3.45;;;;;;;15.53;72.35;101644.78;4955540;28;20162;-60
2022/05/06 01:39:35;;;;;;;4.05;3.65;;;;;;;15.55;72.13;101645.50;4956327;29;20448;-61
2022/05/06 01:42:07;;;;;;;4.30;3.63;;;;;;;15.57;72.56;101640.97;4956351;28;20050;-61
2022/05/06 01:44:41;;;;;;;3.90;3.30;;;;;;;15.55;72.37;101639.38;4956196;28;20106;-62
2022/05/06 01:47:19;;;;;;;3.90;3.50;;;;;;;15.53;72.60;101642.13;4956284;28;20054;-61
2022/05/06 01:49:47;;;;;;;5.22;3.80;;;;;;;15.53;72.76;101644.78;4956424;28;20043;-61
2022/05/06 01:52:19;;;;;;;4.07;3.45;;;;;;;15.52;72.64;101635.97;4954891;28;20067;-60
2022/05/06 01:54:46;;;;;;;5.00;3.00;;;;;;;15.52;72.65;101633.31;4956118;28;20054;-61
2022/05/06 01:57:14;;;;;;;4.25;3.38;;;;;;;15.52;72.71;101630.69;4956039;28;20047;-60
2022/05/06 01:59:41;;;;;;;4.50;3.17;;;;;;;15.52;73.09;101627.19;4955992;28;20504;-63
2022/05/06 02:02:08;;;;;;;3.53;3.03;;;;;;;15.51;73.19;101629.00;4956154;28;20062;-62
2022/05/06 02:07:20;;;;;;;4.38;3.22;;;;;;;15.54;73.24;101638.53;4954749;28;20043;-60
2022/05/06 02:09:47;;;;;;;3.78;3.08;;;;;;;15.55;73.08;101626.16;4955913;28;20492;-61
2022/05/06 02:12:13;;;;;;;4.47;3.78;;;;;;;15.56;73.44;101617.28;4955838;28;20412;-61
2022/05/06 02:14:40;;;;;;;4.70;3.17;;;;;;;15.54;73.18;101621.81;4955740;28;20106;-61
2022/05/06 02:17:07;;;;;;;4.05;3.25;;;;;;;15.54;73.59;101621.81;4955752;28;20432;-63
2022/05/06 02:19:34;;;;;;;3.63;3.13;;;;;;;15.52;73.56;101622.75;4955839;28;20058;-60
2022/05/06 02:22:01;;;;;;;4.50;3.38;;;;;;;15.52;73.68;101617.47;4954269;28;20051;-64
2022/05/06 02:24:28;;;;;;;4.70;3.53;;;;;;;15.51;73.68;101617.56;4955682;28;20051;-61
2022/05/06 02:26:54;;;;;;;4.35;3.72;;;;;;;15.51;73.80;101620.22;4954831;28;20499;-61
2022/05/06 02:29:21;;;;;;;5.20;4.10;;;;;;;15.50;73.69;101613.22;4955486;28;20043;-61
2022/05/06 02:34:32;;;;;;;4.28;3.88;;;;;;;15.53;73.66;101607.75;4955488;28;20138;-60
2022/05/06 02:36:59;;;;;;;4.20;3.80;;;;;;;15.52;73.82;101604.22;4955526;28;20444;-60
2022/05/06 02:39:26;;;;;;;4.90;4.30;;;;;;;15.52;73.54;101606.88;4954224;28;20420;-60
2022/05/06 02:41:53;;;;;;;4.88;4.20;;;;;;;15.52;73.83;101604.22;4955372;28;20452;-61
2022/05/06 02:44:19;;;;;;;4.80;4.22;;;;;;;15.51;73.74;101607.84;4954530;28;20058;-68
2022/05/06 02:46:46;;;;;;;5.45;4.38;;;;;;;15.50;73.75;101600.84;4955259;28;20047;-61
2022/05/06 02:49:13;;;;;;;4.38;3.95;;;;;;;15.45;73.89;101595.00;4955335;28;20047;-62
2022/05/06 02:51:39;;;;;;;5.00;4.50;;;;;;;15.44;73.50;101603.88;4954848;28;20051;-70
2022/05/06 02:54:07;;;;;;;4.40;4.00;;;;;;;15.44;73.56;101595.09;4955146;28;20575;-61
2022/05/06 02:56:34;;;;;;;4.97;4.47;;;;;;;15.42;73.48;101594.34;4953812;28;20051;-61
2022/05/06 02:59:00;;;;;;;5.43;4.63;;;;;;;15.40;73.32;101593.59;4955171;28;20118;-67
2022/05/06 03:01:28;;;;;;;4.75;4.28;;;;;;;15.42;73.25;101603.13;4954684;28;20087;-66
2022/05/06 03:03:55;;;;;;;6.30;4.93;;;;;;;15.39;73.30;101587.47;4953608;28;20075;-61
2022/05/06 03:06:22;;;;;;;6.05;4.90;;;;;;;15.38;72.96;101592.84;4950225;28;20049;-61
2022/05/06 03:08:48;;;;;;;5.70;5.10;;;;;;;15.39;73.14;101594.53;4951581;28;20047;-66
2022/05/06 03:11:15;;;;;;;5.28;4.55;;;;;;;15.38;72.81;101595.50;4950472;28;20047;-61
2022/05/06 03:13:42;;;;;;;5.63;5.13;;;;;;;15.36;72.75;101598.22;4951594;28;20409;-61
2022/05/06 03:16:08;;;;;;;5.18;4.68;;;;;;;15.33;73.05;101603.72;4951471;28;20098;-62
2022/05/06 03:18:35;;;;;;;6.93;4.88;;;;;;;15.34;72.53;101600.13;4951159;28;20118;-61
2022/05/06 03:21:02;;;;;;;6.63;5.22;;;;;;;15.35;72.94;101605.31;4951151;28;20051;-61
2022/05/06 03:23:29;;;;;;;6.20;5.60;;;;;;;15.35;72.48;101601.84;4951572;28;20489;-60
2022/05/06 03:25:55;;;;;;;6.00;5.40;;;;;;;15.31;72.53;101603.81;4950106;28;20050;-61
2022/05/06 03:28:22;;;;;;;5.88;5.30;;;;;;;15.31;72.34;101597.66;4950987;28;20047;-60
2022/05/06 03:30:48;;;;;;;8.93;5.75;;;;;;;15.31;72.59;101595.88;4951234;28;20043;-60
2022/05/06 03:33:16;;;;;;;7.45;5.65;;;;;;;15.30;72.55;101595.94;4951045;28;20443;-60
2022/05/06 03:35:43;;;;;;;5.95;5.35;;;;;;;15.29;72.49;101592.47;4951152;28;20527;-60
2022/05/06 03:38:10;;;;;;;5.82;5.22;;;;;;;15.29;72.41;101594.28;4950793;28;20055;-61
2022/05/06 03:40:37;;;;;;;5.95;5.30;;;;;;;15.27;72.65;101596.16;4951014;28;20101;-61
2022/05/06 03:43:04;;;;;;;8.60;6.45;;;;;;;15.25;72.78;101588.34;4950186;28;20047;-65
2022/05/06 03:45:31;;;;;;;7.80;5.38;;;;;;;15.25;72.72;101590.09;4950833;28;20058;-61
2022/05/06 03:47:59;;;;;;;6.20;5.35;;;;;;;15.25;72.68;101592.75;4950942;28;20047;-60
2022/05/06 03:53:12;;;;;;;7.13;4.95;;;;;;;15.24;72.42;101589.28;4950539;29;20039;-60
2022/05/06 03:55:38;;;;;;;5.95;5.30;;;;;;;15.23;72.78;101592.00;4949888;28;20047;-61
2022/05/06 03:58:05;;;;;;;6.72;5.38;;;;;;;15.23;72.74;101603.44;4949554;28;20047;-61
2022/05/06 04:00:32;;;;;;;6.57;5.50;;;;;;;15.24;72.51;101601.66;4951079;28;20428;-60
2022/05/06 04:02:59;;;;;;;5.60;5.10;;;;;;;15.20;73.08;101593.06;4950712;28;20047;-61
2022/05/06 04:05:33;;;;;;;5.97;5.40;;;;;;;15.21;72.96;101601.84;4950564;28;20412;-61
2022/05/06 04:08:00;;;;;;;7.05;5.82;;;;;;;15.17;73.11;101601.16;4950838;28;20054;-60
2022/05/06 04:10:28;;;;;;;6.13;5.53;;;;;;;15.17;73.16;101602.03;4950493;28;20047;-60
2022/05/06 04:12:54;;;;;;;6.85;5.30;;;;;;;15.18;72.80;101608.16;4950971;28;20102;-61
2022/05/06 04:15:21;;;;;;;6.00;5.38;;;;;;;15.18;72.74;101609.03;4949717;28;20047;-61
2022/05/06 04:17:47;;;;;;;6.18;5.45;;;;;;;15.18;72.76;101609.03;4950681;28;20074;-60
2022/05/06 04:25:44;;;;;;;6.47;5.88;;;;;;;15.21;73.00;101615.91;4947738;28;20098;-60
2022/05/06 04:28:11;;;;;;;6.15;5.20;;;;;;;15.21;72.88;101618.56;4961749;28;20047;-61
2022/05/06 04:30:38;;;;;;;6.50;5.20;;;;;;;15.22;73.17;101624.69;4958610;28;20055;-61
2022/05/06 04:33:04;;;;;;;7.70;5.32;;;;;;;15.18;73.39;101624.03;4949939;28;20106;-60
2022/05/06 04:35:31;;;;;;;9.98;5.32;;;;;;;15.18;73.17;101611.66;4950104;28;20571;-61
2022/05/06 04:37:58;;;;;;;6.68;5.70;;;;;;;15.19;73.51;101626.56;4955301;28;20038;-61
2022/05/06 04:40:24;;;;;;;6.38;5.45;;;;;;;15.18;73.57;101626.66;4950432;28;20047;-69
2022/05/06 04:42:51;;;;;;;5.88;5.28;;;;;;;15.20;73.60;101622.16;4950632;28;20436;-61
2022/05/06 04:45:18;;;;;;;6.40;5.78;;;;;;;15.17;73.55;101631.13;4950355;28;20435;-61
2022/05/06 04:47:44;;;;;;;5.60;5.07;;;;;;;15.17;73.74;101636.41;4950241;28;20047;-60
2022/05/06 04:50:11;;;;;;;7.07;6.28;;;;;;;15.19;73.74;101628.38;4947912;29;20055;-63
2022/05/06 04:52:38;;;;;;;7.18;5.18;;;;;;;15.17;73.58;101631.13;4950020;28;20066;-60
2022/05/06 04:55:05;;;;;;;6.70;5.05;;;;;;;15.16;73.48;101631.19;4950134;28;20517;-61
2022/05/06 04:57:32;;;;;;;6.97;5.30;;;;;;;15.16;74.03;101636.47;4950033;28;20098;-61
2022/05/06 04:59:59;;;;;;;12.10;9.05;;;;;;;15.29;74.32;101633.94;4950092;28;20099;-59
2022/05/06 05:02:27;;;;;;;10.77;6.40;;;;;;;15.62;73.26;101632.75;4950076;28;20071;-59
2022/05/06 05:04:57;;;;;;;6.40;5.25;;;;;;;15.78;72.50;101633.47;4948522;28;20066;-66
2022/05/06 05:07:25;;;;;;;6.53;4.90;;;;;;;15.56;72.79;101633.16;4951987;28;20476;-60
2022/05/06 05:09:52;;;;;;;5.13;4.63;;;;;;;15.55;73.22;101636.75;4953839;28;20070;-57
2022/05/06 05:12:19;;;;;;;5.57;4.95;;;;;;;15.43;73.42;101638.38;4953540;28;20051;-58
2022/05/06 05:14:46;;;;;;;5.90;5.30;;;;;;;15.37;73.60;101639.59;4954064;28;20083;-58
2022/05/06 05:17:13;;;;;;;6.63;5.10;;;;;;;15.33;73.42;101635.44;4953331;28;20492;-60
2022/05/06 05:19:45;;;;;;;5.30;4.80;;;;;;;15.33;73.77;101632.81;4944952;28;20051;-60
2022/05/06 05:22:21;;;;;;;6.65;4.63;;;;;;;15.28;73.65;101635.72;4949413;29;20054;-60
2022/05/06 05:24:48;;;;;;;5.65;5.00;;;;;;;15.30;73.52;101643.56;4953795;28;20488;-57
2022/05/06 05:27:16;;;;;;;5.00;4.50;;;;;;;15.29;73.58;101644.53;4953302;28;20046;-65
2022/05/06 05:29:43;;;;;;;5.57;4.47;;;;;;;15.30;73.52;101630.34;4953383;28;20106;-65
2022/05/06 05:32:11;;;;;;;6.00;5.20;;;;;;;15.31;73.53;101635.56;4953319;28;20051;-57
2022/05/06 05:34:41;;;;;;;5.82;4.70;;;;;;;15.29;73.69;101632.13;4953554;28;20069;-61
2022/05/06 05:37:09;;;;;;;6.22;5.10;;;;;;;15.28;73.78;101627.78;4941309;28;20048;-70
2022/05/06 05:39:36;;;;;;;5.47;4.97;;;;;;;15.28;73.67;101634.88;4952786;29;20093;-71
2022/05/06 05:42:04;;;;;;;5.75;5.15;;;;;;;15.27;73.51;101641.13;4953341;28;20150;-58
2022/05/06 05:50:01;;;;;;;5.72;5.15;;;;;;;15.32;73.76;101639.03;4952806;28;20043;-57
2022/05/06 05:52:28;;;;;;;7.15;5.72;;;;;;;15.32;73.47;101633.75;4952131;28;20039;-71
2022/05/06 05:54:55;;;;;;;10.07;5.82;;;;;;;15.48;73.44;101639.75;4952660;28;20531;-58
2022/05/06 05:57:21;;;;;;;8.15;6.20;;;;;;;15.35;73.33;101644.97;4952044;28;20066;-58
2022/05/06 05:59:48;;;;;;;6.70;5.07;;;;;;;15.31;73.64;101638.19;4952543;28;20043;-60
2022/05/06 06:02:16;;;;;;;7.35;6.30;;;;;;;15.30;73.32;101644.41;4952879;28;20110;-58
2022/05/06 06:04:44;;;;;;;7.05;6.18;;;;;;;15.25;73.46;101643.00;4952909;28;20047;-61
2022/05/06 06:07:10;;;;;;;7.40;6.32;;;;;;;15.28;73.52;101646.31;4952282;28;20047;-58
2022/05/06 06:09:37;;;;;;;6.57;5.95;;;;;;;15.26;73.63;101642.91;4951570;28;20051;-57
2022/05/06 06:12:04;;;;;;;7.05;6.35;;;;;;;15.35;73.26;101649.44;4952397;28;20047;-57
2022/05/06 06:14:31;;;;;;;9.65;6.25;;;;;;;15.34;73.35;101650.38;4952110;28;20047;-57
2022/05/06 06:16:58;;;;;;;6.72;6.07;;;;;;;15.30;73.46;101649.72;4952398;28;20062;-64
2022/05/06 06:19:28;;;;;;;6.55;5.95;;;;;;;15.28;73.27;101650.75;4956870;28;20492;-63
2022/05/06 06:21:54;;;;;;;7.63;6.50;;;;;;;15.30;73.52;101655.00;4952423;28;20094;-58
2022/05/06 06:24:21;;;;;;;7.38;6.63;;;;;;;15.27;73.32;101663.09;4954736;28;20047;-58
2022/05/06 06:26:48;;;;;;;8.07;6.20;;;;;;;15.25;73.36;101659.72;4938635;28;20077;-58
2022/05/06 06:29:15;;;;;;;6.90;6.20;;;;;;;15.24;73.46;101660.66;4941145;29;20090;-68
2022/05/06 06:31:42;;;;;;;6.88;6.18;;;;;;;15.24;73.54;101660.66;4931601;29;20466;-58
2022/05/06 06:34:09;;;;;;;6.82;6.13;;;;;;;15.24;73.59;101660.66;4936510;29;20047;-57
2022/05/06 06:36:35;;;;;;;7.90;6.13;;;;;;;15.27;73.20;101662.25;4936218;29;20059;-65
2022/05/06 06:39:02;;;;;;;7.80;6.35;;;;;;;15.26;73.49;101660.56;4934656;29;20124;-58
2022/05/06 06:41:29;;;;;;;7.97;6.45;;;;;;;15.27;73.46;101667.56;4936830;28;20063;-58
2022/05/06 06:43:57;;;;;;;6.68;5.97;;;;;;;15.27;73.43;101670.19;4932044;29;20048;-68
2022/05/06 06:46:24;;;;;;;7.15;5.75;;;;;;;15.26;73.51;101664.06;4934765;29;20040;-63
2022/05/06 06:48:52;;;;;;;6.70;6.00;;;;;;;15.27;73.59;101662.25;4931568;29;20075;-57
2022/05/06 06:51:19;;;;;;;7.32;6.40;;;;;;;15.28;73.16;101664.81;4934978;28;20044;-60
2022/05/06 06:53:47;;;;;;;6.35;5.75;;;;;;;15.28;73.47;101670.09;4933453;29;20043;-59
2022/05/06 06:56:13;;;;;;;6.65;5.95;;;;;;;15.27;73.37;101668.41;4936907;29;20048;-64
2022/05/06 06:58:40;;;;;;;8.93;6.63;;;;;;;15.28;73.22;101674.56;4936501;29;20520;-70
2022/05/06 07:01:07;;;;;;;9.20;6.43;;;;;;;15.28;73.38;101671.91;4933817;28;20413;-59
2022/05/06 07:03:33;;;;;;;7.35;6.53;;;;;;;15.26;73.49;101668.50;4938374;28;20094;-71
2022/05/06 07:14:16;;;;;;;8.00;6.63;;;;;;;15.32;73.37;101681.34;4951036;28;20466;-65
2022/05/06 07:16:43;;;;;;;7.95;7.15;;;;;;;15.32;73.59;101678.69;4942717;28;20451;-70
2022/05/06 07:19:10;;;;;;;7.97;7.00;;;;;;;15.33;73.33;101681.25;4938022;28;20428;-58
2022/05/06 07:21:37;;;;;;;8.68;7.75;;;;;;;15.33;73.40;101683.03;4930473;29;20060;-69
2022/05/06 07:24:04;;;;;;;10.05;7.65;;;;;;;15.33;73.39;101683.88;4935519;29;20043;-59
2022/05/06 07:26:31;;;;;;;8.40;7.60;;;;;;;15.35;73.64;101687.28;4935051;29;20457;-59
2022/05/06 07:28:58;;;;;;;9.32;8.18;;;;;;;15.37;73.36;101679.25;4935073;28;20044;-58
2022/05/06 07:31:24;;;;;;;8.68;7.78;;;;;;;15.34;73.83;101688.25;4948149;28;20103;-68
2022/05/06 07:33:51;;;;;;;10.75;8.32;;;;;;;15.36;73.59;101685.50;4944577;29;20051;-64
2022/05/06 07:36:18;;;;;;;9.73;7.97;;;;;;;15.38;73.83;101685.41;4947515;29;20173;-58
2022/05/06 07:38:45;;;;;;;8.85;7.95;;;;;;;15.42;73.85;101690.41;4950217;28;20050;-57
2022/05/06 07:41:11;;;;;;;8.68;7.78;;;;;;;15.42;73.62;101693.03;4949320;28;20700;-58
2022/05/06 07:43:38;;;;;;;11.30;8.05;;;;;;;15.44;73.78;101690.31;4949975;28;20422;-59
2022/05/06 07:46:09;;;;;;;9.50;8.50;;;;;;;15.44;73.62;101698.22;4947997;28;20114;-58
2022/05/06 07:48:37;;;;;;;10.95;8.63;;;;;;;15.42;73.79;101694.84;4943186;28;20062;-70
2022/05/06 07:51:09;;;;;;;10.63;8.77;;;;;;;15.44;74.01;101696.47;4946007;29;20542;-58
2022/05/06 07:53:36;;;;;;;10.35;8.70;;;;;;;15.42;73.86;101695.69;4947192;28;20043;-58
2022/05/06 07:56:03;;;;;;;8.50;7.65;;;;;;;15.38;74.07;101696.00;4946468;28;20488;-58
2022/05/06 07:58:30;;;;;;;10.05;7.57;;;;;;;15.35;74.17;101689.94;4949700;28;20051;-58
2022/05/06 08:00:56;;;;;;;11.23;8.90;;;;;;;15.37;74.24;101692.50;4947054;28;20039;-58
2022/05/06 08:06:08;;;;;;;10.55;8.77;;;;;;;15.41;74.26;101698.44;4945872;28;20423;-58
2022/05/06 08:08:35;;;;;;;9.50;8.35;;;;;;;15.43;74.31;101699.22;4942339;28;20059;-58
2022/05/06 08:11:02;;;;;;;9.55;8.60;;;;;;;15.44;74.13;101692.94;4940720;28;20051;-58
2022/05/06 08:13:29;;;;;;;10.70;8.68;;;;;;;15.45;74.35;101694.66;4931881;29;20059;-57
2022/05/06 08:15:57;;;;;;;11.07;8.65;;;;;;;15.85;74.32;101696.66;4943378;28;20059;-58
2022/05/06 08:18:24;;;;;;;15.70;9.45;;;;;;;16.27;73.07;101695.63;4950215;28;20047;-58
2022/05/06 08:20:52;;;;;;;11.18;9.82;;;;;;;16.54;72.31;101692.13;4944661;28;20056;-57
2022/05/06 08:23:22;;;;;;;14.45;9.15;;;;;;;16.76;71.48;101690.66;4938747;29;20043;-58
2022/05/06 08:25:53;;;;;;;11.02;8.50;;;;;;;16.88;71.50;101691.66;4932868;28;20067;-57
2022/05/06 08:28:20;;;;;;;9.70;8.57;;;;;;;16.96;71.17;101692.88;4931172;29;20065;-60
2022/05/06 08:30:48;;;;;;;10.27;8.00;;;;;;;16.93;71.33;101694.88;4939768;28;20054;-65
2022/05/06 08:33:15;;;;;;;11.77;8.70;;;;;;;17.00;71.11;101695.28;4950256;28;20519;-63
2022/05/06 08:35:43;;;;;;;11.98;9.13;;;;;;;17.00;70.40;101697.94;4950134;28;20050;-61
2022/05/06 08:38:11;;;;;;;19.95;16.10;;;;;;;16.97;70.81;101693.69;4942095;28;20067;-69
2022/05/06 08:40:37;;;;;;;20.48;15.18;;;;;;;16.94;70.31;101696.56;4944651;28;20113;-58
2022/05/06 08:43:05;;;;;;;20.17;16.60;;;;;;;17.00;70.26;101692.63;4953081;29;20051;-70
2022/05/06 08:51:04;;;;;;;17.50;13.73;;;;;;;17.03;70.18;101700.41;4953622;28;20473;-67
2022/05/06 08:53:34;;;;;;;19.45;16.73;;;;;;;16.98;70.34;101704.19;4940376;28;20588;-69
2022/05/06 08:56:04;;;;;;;16.75;14.43;;;;;;;17.06;69.71;101705.47;4939964;29;20043;-66
2022/05/06 08:58:34;;;;;;;13.95;11.15;;;;;;;17.06;69.55;101713.44;4935580;29;20082;-59
2022/05/06 09:01:12;;;;;;;37.78;16.05;;;;;;;17.07;69.96;101712.47;4947560;28;20050;-58
2022/05/06 09:03:44;;;;;;;16.58;13.10;;;;;;;17.02;69.66;101709.31;4943599;29;20192;-58
2022/05/06 09:06:22;;;;;;;15.90;11.98;;;;;;;17.10;69.39;101718.44;4954509;28;20147;-58
2022/05/06 09:08:51;;;;;;;18.42;13.02;;;;;;;17.20;69.13;101715.13;4952794;28;20069;-73
2022/05/06 09:12:40;;;;;;;16.67;11.95;;;;;;;17.25;68.71;101715.66;4953715;28;20054;-58
2022/05/06 09:14:06;;;;;;;12.02;10.48;;;;;;;17.11;69.16;101724.56;4953787;28;20101;-58
2022/05/06 09:16:46;;;;;;;11.70;9.48;;;;;;;17.07;69.01;101729.22;4953399;28;20176;-59
2022/05/06 09:19:27;;;;;;;14.73;11.48;;;;;;;16.94;69.84;101728.38;4953855;28;20098;-58
2022/05/06 09:22:01;;;;;;;9.20;8.15;;;;;;;16.60;70.68;101738.56;4953416;28;20055;-58
2022/05/06 09:24:29;;;;;;;10.45;9.35;;;;;;;16.61;70.62;101735.81;4952398;28;20452;-59
2022/05/06 09:27:02;;;;;;;12.57;10.38;;;;;;;16.80;70.35;101740.72;4953547;28;20487;-59
2022/05/06 09:29:38;;;;;;;10.75;9.00;;;;;;;16.63;70.97;101731.25;4953373;28;20047;-70
2022/05/06 09:32:16;;;;;;;9.68;8.27;;;;;;;16.53;71.39;101742.56;4953393;28;20496;-57
2022/05/06 09:34:44;;;;;;;9.90;8.55;;;;;;;16.48;71.84;101743.72;4953464;28;20066;-67
2022/05/06 09:37:11;;;;;;;10.05;8.88;;;;;;;16.45;71.84;101743.91;4953363;28;20121;-58
2022/05/06 09:39:38;;;;;;;10.38;9.02;;;;;;;16.43;72.29;101747.59;4951998;28;20128;-64
2022/05/06 09:42:06;;;;;;;11.52;9.48;;;;;;;16.41;72.59;101752.19;4945531;29;20104;-58
2022/05/06 09:44:34;;;;;;;11.25;9.27;;;;;;;16.33;72.78;101745.56;4952923;28;20053;-60
2022/05/06 09:47:15;;;;;;;10.77;9.77;;;;;;;16.26;73.13;101749.56;4953159;28;20044;-57
2022/05/06 09:49:42;;;;;;;10.85;9.43;;;;;;;16.20;73.39;101755.28;4953515;28;20043;-73
2022/05/06 09:52:13;;;;;;;10.02;9.02;;;;;;;16.18;73.49;101762.47;4952729;28;20074;-59
2022/05/06 09:54:44;;;;;;;10.13;8.48;;;;;;;16.19;73.16;101758.88;4948740;28;20039;-72
2022/05/06 09:57:12;;;;;;;9.63;8.68;;;;;;;16.12;73.36;101765.50;4945157;29;20099;-63
2022/05/06 09:59:39;;;;;;;9.75;8.63;;;;;;;16.06;73.83;101765.88;4944705;28;20044;-58
2022/05/06 10:02:08;;;;;;;10.40;8.63;;;;;;;16.04;73.65;101767.78;4934438;28;20590;-58
2022/05/06 10:04:36;;;;;;;11.95;9.13;;;;;;;16.03;73.54;101774.03;4936811;29;20043;-57
2022/05/06 10:07:06;;;;;;;11.73;9.40;;;;;;;16.01;73.79;101766.19;4933730;28;20048;-73
2022/05/06 10:09:39;;;;;;;10.35;9.18;;;;;;;16.00;73.83;101767.13;4938438;29;20106;-59
2022/05/06 10:12:10;;;;;;;10.07;8.88;;;;;;;15.95;73.68;101770.06;4935504;29;20452;-58
2022/05/06 10:14:39;;;;;;;12.57;9.20;;;;;;;15.99;73.53;101762.78;4940045;29;20052;-57
2022/05/06 10:17:08;;;;;;;12.52;9.48;;;;;;;16.03;73.34;101764.28;4934227;29;20130;-60
2022/05/06 10:19:38;;;;;;;12.13;8.95;;;;;;;16.03;73.65;101764.28;4934042;29;20481;-63
2022/05/06 10:22:05;;;;;;;9.45;8.52;;;;;;;16.03;73.43;101766.94;4937420;29;20052;-59
2022/05/06 10:24:39;;;;;;;10.85;9.02;;;;;;;16.03;73.34;101761.63;4933707;28;20394;-58
2022/05/06 10:33:15;;;;;;;13.25;10.45;;;;;;;16.08;73.53;101753.41;4939055;28;20440;-58
2022/05/06 10:35:44;;;;;;;11.93;9.95;;;;;;;16.10;73.33;101749.72;4935729;29;20382;-60
2022/05/06 10:38:18;;;;;;;12.35;10.38;;;;;;;16.13;73.23;101753.97;4934632;28;20106;-59
2022/05/06 10:40:59;;;;;;;15.25;10.90;;;;;;;16.11;73.35;101751.41;4934361;29;20051;-58
2022/05/06 10:43:50;;;;;;;12.32;9.85;;;;;;;16.10;73.83;101752.34;4936913;29;20075;-59
2022/05/06 10:46:34;;;;;;;11.57;10.00;;;;;;;16.14;73.46;101750.38;4932048;29;20078;-60
2022/05/06 10:49:34;;;;;;;11.52;9.75;;;;;;;16.12;73.97;101747.78;4934900;29;20094;-71
2022/05/06 10:52:24;;;;;;;14.77;11.38;;;;;;;16.15;73.59;101749.41;4936573;29;20498;-71
2022/05/06 10:54:58;;;;;;;10.85;9.75;;;;;;;16.12;73.72;101737.19;4938677;29;20052;-58
2022/05/06 10:57:28;;;;;;;10.85;9.57;;;;;;;16.17;73.87;101750.16;4943262;29;20059;-58
2022/05/06 11:00:03;;;;;;;12.65;10.48;;;;;;;16.14;73.79;101742.44;4950384;28;20043;-58
2022/05/06 11:02:38;;;;;;;12.38;10.18;;;;;;;16.12;73.73;101742.50;4950351;28;20044;-58
2022/05/06 11:05:06;;;;;;;13.20;9.95;;;;;;;16.14;73.85;101745.91;4950751;28;20070;-59
2022/05/06 11:07:35;;;;;;;15.07;11.40;;;;;;;16.20;74.05;101743.81;4950764;28;20492;-57
2022/05/06 11:10:16;;;;;;;30.80;18.48;;;;;;;16.67;73.51;101736.34;4955278;28;20057;-60
2022/05/06 11:12:58;;;;;;;12.00;9.13;;;;;;;16.60;72.76;101733.25;4956247;28;20491;-57
2022/05/06 11:15:29;;;;;;;31.15;19.90;;;;;;;16.90;73.03;101737.44;4955827;28;20512;-57
2022/05/06 11:18:01;;;;;;;32.45;20.92;;;;;;;17.17;72.87;101737.41;4954031;28;20551;-58
2022/05/06 11:20:36;;;;;;;35.78;21.67;;;;;;;17.37;73.37;101735.16;4949799;28;20055;-58
2022/05/06 11:23:11;;;;;;;27.90;18.80;;;;;;;17.51;73.99;101740.38;4947583;28;20043;-57
2022/05/06 11:25:40;;;;;;;26.70;19.40;;;;;;;17.57;74.09;101736.44;4947763;29;20047;-57
2022/05/06 11:28:14;;;;;;;19.67;12.75;;;;;;;17.54;74.19;101737.50;4951091;28;20075;-57
2022/05/06 11:30:45;;;;;;;20.25;16.23;;;;;;;17.54;75.07;101737.50;4950802;28;20055;-63
2022/05/06 11:33:27;;;;;;;18.80;14.52;;;;;;;17.59;74.88;101735.38;4950656;28;20043;-58
2022/05/06 11:36:02;;;;;;;18.00;13.15;;;;;;;17.60;74.35;101730.94;4949454;28;20126;-58
2022/05/06 11:38:34;;;;;;;20.20;12.80;;;;;;;17.63;74.87;101728.88;4950836;28;20504;-57
2022/05/06 11:41:18;;;;;;;13.70;11.32;;;;;;;17.60;74.20;101725.63;4950843;28;20074;-56
2022/05/06 11:43:46;;;;;;;13.57;10.65;;;;;;;17.57;74.24;101729.34;4952094;28;20043;-56
2022/05/06 11:49:07;;;;;;;39.80;22.17;;;;;;;17.67;74.04;101726.03;4950751;28;20408;-58
2022/05/06 11:51:40;;;;;;;43.08;22.35;;;;;;;17.75;74.17;101729.84;4938045;28;20051;-57
2022/05/06 11:54:08;;;;;;;28.60;19.02;;;;;;;17.77;74.19;101725.25;4949708;28;20055;-67
2022/05/06 11:56:37;;;;;;;23.23;16.42;;;;;;;17.74;74.12;101728.13;4950363;28;20109;-58
2022/05/06 11:59:05;;;;;;;17.17;13.90;;;;;;;17.78;73.95;101728.75;4950618;28;20106;-59
2022/05/06 12:01:34;;;;;;;16.85;10.82;;;;;;;17.63;73.41;101730.69;4956889;28;20492;-59
2022/05/06 12:04:03;;;;;;;16.13;11.00;;;;;;;17.66;73.11;101716.34;4934779;28;20048;-59
2022/05/06 12:06:37;;;;;;;22.75;13.13;;;;;;;17.75;73.54;101715.69;4947167;29;20082;-57
2022/05/06 12:09:10;;;;;;;16.85;12.88;;;;;;;17.78;73.05;101723.44;4950733;28;20062;-57
2022/05/06 12:11:41;;;;;;;17.60;11.75;;;;;;;17.78;72.77;101720.78;4948674;28;20488;-59
2022/05/06 12:14:19;;;;;;;15.60;10.80;;;;;;;17.74;72.82;101721.97;4950563;28;20051;-57